createdAt,value
2023-03-03T00:00:53.031Z,11.01
2023-03-03T00:02:17.116Z,10.04
2023-03-03T00:03:40.311Z,10.89
2023-03-03T00:05:02.056Z,10.58
2023-03-03T00:06:27.996Z,11.29
2023-03-03T00:07:49.563Z,12.04
2023-03-03T00:09:14.410Z,12.84
2023-03-03T00:10:36.938Z,13.05
2023-03-03T00:12:04.251Z,13.70
2023-03-03T00:13:28.621Z,12.81
2023-03-03T00:14:50.688Z,12.64
2023-03-03T00:17:40.829Z,11.11
2023-03-03T00:19:03.064Z,11.43
2023-03-03T00:20:37.448Z,10.06
2023-03-03T00:22:01.845Z,9.66
2023-03-03T00:23:28.132Z,9.68
2023-03-03T00:24:53.454Z,8.58
2023-03-03T00:26:33.243Z,8.73
2023-03-03T00:28:07.644Z,8.48
2023-03-03T00:29:54.467Z,9.36
2023-03-03T00:31:21.694Z,8.86
2023-03-03T00:32:49.884Z,9.18
2023-03-03T00:34:21.669Z,9.76
2023-03-03T00:35:58.645Z,10.24
2023-03-03T00:37:37.674Z,9.46
2023-03-03T00:39:17.427Z,10.42
2023-03-03T00:40:44.988Z,9.97
2023-03-03T00:42:28.931Z,9.92
2023-03-03T00:43:55.166Z,10.16
2023-03-03T00:45:36.499Z,10.74
2023-03-03T00:47:00.435Z,10.26
2023-03-03T00:48:30.541Z,9.89
2023-03-03T00:50:11.414Z,10.26
2023-03-03T00:51:33.831Z,9.23
2023-03-03T00:53:03.458Z,9.34
2023-03-03T00:54:27.450Z,9.79
2023-03-03T00:55:50.295Z,10.32
2023-03-03T00:57:14.030Z,10.61
2023-03-03T00:58:36.314Z,10.00
2023-03-03T01:00:00.813Z,10.04
2023-03-03T01:01:23.880Z,10.31
2023-03-03T01:02:47.365Z,10.49
2023-03-03T01:04:10.116Z,10.79
2023-03-03T01:05:32.568Z,11.41
2023-03-03T01:06:56.113Z,10.47
2023-03-03T01:08:18.050Z,10.62
2023-03-03T01:09:40.213Z,11.47
2023-03-03T01:11:11.758Z,12.17
2023-03-03T01:12:34.885Z,13.82
2023-03-03T01:13:58.570Z,12.04
2023-03-03T01:15:22.463Z,12.93
2023-03-03T01:18:07.772Z,22.85
2023-03-03T01:19:29.764Z,17.37
2023-03-03T01:20:51.829Z,14.53
2023-03-03T01:22:20.921Z,11.14
2023-03-03T01:23:43.921Z,15.06
2023-03-03T01:25:07.522Z,13.99
2023-03-03T01:26:30.590Z,12.92
2023-03-03T01:27:52.703Z,9.70
2023-03-03T01:29:16.412Z,12.18
2023-03-03T01:30:39.708Z,11.07
2023-03-03T01:34:01.934Z,11.85
2023-03-03T01:35:26.414Z,11.71
2023-03-03T01:36:53.467Z,12.31
2023-03-03T01:38:17.802Z,12.08
2023-03-03T01:39:43.699Z,11.60
2023-03-03T01:41:06.106Z,11.24
2023-03-03T01:42:31.122Z,11.22
2023-03-03T01:44:00.760Z,11.76
2023-03-03T01:45:35.663Z,10.80
2023-03-03T01:47:21.087Z,10.79
2023-03-03T01:50:51.929Z,11.12
2023-03-03T01:52:28.019Z,11.17
2023-03-03T01:53:57.328Z,10.60
2023-03-03T01:55:24.153Z,10.94
2023-03-03T02:00:16.859Z,12.16
2023-03-03T02:01:56.960Z,13.14
2023-03-03T07:01:03.375Z,10.17
2023-03-03T07:06:26.476Z,13.17
2023-03-03T07:07:51.014Z,12.09
2023-03-03T07:09:18.445Z,11.72
2023-03-03T16:20:04.611Z,16.05
2023-03-03T16:27:34.730Z,16.58
2023-03-03T16:53:50.222Z,17.93
2023-03-03T16:55:24.084Z,17.92
2023-03-03T17:03:32.265Z,17.83
2023-03-03T17:05:03.066Z,18.42
2023-03-03T17:24:55.604Z,20.62
2023-03-03T17:26:34.208Z,19.55
2023-03-03T17:28:48.520Z,20.42
2023-03-03T17:30:42.920Z,19.97
2023-03-03T17:58:56.996Z,16.51
2023-03-03T18:17:26.495Z,19.57
2023-03-03T18:20:38.224Z,16.18
2023-03-03T18:25:55.165Z,20.29
2023-03-03T18:27:37.634Z,20.90
2023-03-03T18:30:59.316Z,19.06
2023-03-03T18:32:22.318Z,21.79
2023-03-03T18:33:46.625Z,21.67
2023-03-03T18:35:35.759Z,21.30
2023-03-03T18:37:06.041Z,20.34
2023-03-03T18:38:33.972Z,20.46
2023-03-03T18:40:08.899Z,21.31
2023-03-03T18:41:33.754Z,20.66
2023-03-03T18:42:59.562Z,20.63
2023-03-03T18:44:33.065Z,21.98
2023-03-03T18:45:54.930Z,21.90
2023-03-03T18:47:18.262Z,21.70
2023-03-03T18:49:02.965Z,21.01
2023-03-03T18:50:35.444Z,21.41
2023-03-03T18:53:43.296Z,22.21
2023-03-03T18:55:11.412Z,20.92
2023-03-03T18:56:43.124Z,21.46
2023-03-03T18:58:19.779Z,21.82
2023-03-03T19:01:44.677Z,29.53
2023-03-03T19:04:31.759Z,20.25
2023-03-03T19:06:01.380Z,22.93
2023-03-03T19:07:26.610Z,21.29
2023-03-03T19:08:59.203Z,20.78
2023-03-03T19:10:44.361Z,19.76
2023-03-03T19:12:15.210Z,21.03
2023-03-03T19:13:41.457Z,19.36
2023-03-03T19:15:05.185Z,21.59
2023-03-03T19:16:33.603Z,21.37
2023-03-03T19:18:08.399Z,21.13
2023-03-03T19:19:39.358Z,21.33
2023-03-03T19:21:34.708Z,21.68
2023-03-03T19:25:36.330Z,21.46
2023-03-03T19:29:25.879Z,21.09
2023-03-03T19:31:02.928Z,19.60
2023-03-03T19:32:40.895Z,20.23
2023-03-03T19:34:26.271Z,20.58
2023-03-03T19:36:11.468Z,20.66
2023-03-03T19:37:40.716Z,21.67
2023-03-03T19:39:17.892Z,21.29
2023-03-03T19:41:07.420Z,22.18
2023-03-03T19:42:52.520Z,20.16
2023-03-03T19:44:21.227Z,20.16
2023-03-03T19:46:06.326Z,20.86
2023-03-03T19:47:50.302Z,21.32
2023-03-03T19:49:33.304Z,21.94
2023-03-03T19:51:27.966Z,21.19
2023-03-03T19:53:15.355Z,20.37
2023-03-03T19:55:08.950Z,21.23
2023-03-03T19:56:40.228Z,21.58
2023-03-03T19:59:53.498Z,20.91
2023-03-03T20:01:46.558Z,21.02
2023-03-03T20:03:30.770Z,18.20
2023-03-03T20:05:14.384Z,16.62
2023-03-03T20:06:53.171Z,16.74
2023-03-03T20:08:21.914Z,17.53
2023-03-03T20:09:56.496Z,18.25
2023-03-03T20:11:52.962Z,18.16
2023-03-03T20:13:36.346Z,18.91
2023-03-03T20:16:35.348Z,20.80
2023-03-03T20:18:12.408Z,21.17
2023-03-03T20:19:58.708Z,20.62
2023-03-03T20:21:27.484Z,19.84
2023-03-03T20:23:09.510Z,19.84
2023-03-03T20:24:59.551Z,21.13
2023-03-03T20:28:08.825Z,21.27
2023-03-03T20:29:53.076Z,21.77
2023-03-03T20:31:40.459Z,21.06
2023-03-03T20:33:22.602Z,22.68
2023-03-03T20:35:09.885Z,22.98
2023-03-03T20:36:57.052Z,22.72
2023-03-03T20:38:41.037Z,19.46
2023-03-03T20:40:10.135Z,17.50
2023-03-03T20:41:58.871Z,18.70
2023-03-03T20:43:37.476Z,17.63
2023-03-03T20:45:14.034Z,17.83
2023-03-03T20:49:09.209Z,18.97
2023-03-03T20:50:38.044Z,19.23
2023-03-03T20:52:22.094Z,21.31
2023-03-03T21:08:16.087Z,22.68
2023-03-03T21:21:54.802Z,13.64
2023-03-03T21:23:17.759Z,27.74
2023-03-03T21:24:54.485Z,21.72
2023-03-03T21:27:40.576Z,21.17
2023-03-03T21:30:25.599Z,22.33
2023-03-03T21:33:16.075Z,24.63
2023-03-03T21:34:39.601Z,23.38
2023-03-03T21:36:00.681Z,24.51
2023-03-03T21:37:46.272Z,24.63
2023-03-03T21:39:39.756Z,25.49
2023-03-03T21:41:03.687Z,19.07
2023-03-03T21:42:43.156Z,23.39
2023-03-03T21:44:07.331Z,22.62
2023-03-03T21:45:29.061Z,21.08
2023-03-03T21:46:52.330Z,20.56
2023-03-03T21:48:14.151Z,20.56
2023-03-03T21:49:36.236Z,20.51
2023-03-03T21:50:57.843Z,20.80
2023-03-03T21:52:21.233Z,20.46
2023-03-03T21:53:48.583Z,19.83
2023-03-03T21:55:11.607Z,25.54
2023-03-03T21:56:36.173Z,20.82
2023-03-03T21:58:01.634Z,21.09
2023-03-03T21:59:23.664Z,21.14
2023-03-03T22:12:40.142Z,16.27
2023-03-03T22:15:35.935Z,18.36
2023-03-03T22:17:00.268Z,20.79
2023-03-03T22:18:27.058Z,20.67
2023-03-03T22:19:48.629Z,20.71
2023-03-03T22:21:10.198Z,19.86
2023-03-03T22:22:33.043Z,19.32
2023-03-03T22:23:56.655Z,18.62
2023-03-03T22:25:20.275Z,20.51
2023-03-03T22:26:42.226Z,19.81
2023-03-03T22:28:04.638Z,20.10
2023-03-03T22:29:26.106Z,19.14
2023-03-03T22:30:51.427Z,20.17
2023-03-03T22:32:13.826Z,19.46
2023-03-03T22:33:37.174Z,19.61
2023-03-03T22:34:59.289Z,20.07
2023-03-03T22:38:03.443Z,19.31
2023-03-03T22:39:25.759Z,19.64
2023-03-03T22:40:47.607Z,15.43
2023-03-03T22:42:09.633Z,19.61
2023-03-03T22:43:32.206Z,19.76
2023-03-03T22:44:54.016Z,19.63
2023-03-03T22:46:17.359Z,19.29
2023-03-03T22:47:38.932Z,15.02
2023-03-03T22:49:01.040Z,19.34
2023-03-03T22:50:23.012Z,19.13
2023-03-03T22:51:45.034Z,18.65
2023-03-03T22:53:06.464Z,15.93
2023-03-03T22:54:27.938Z,19.19
2023-03-03T22:55:50.213Z,16.14
2023-03-03T22:57:12.695Z,20.04
2023-03-03T22:58:35.779Z,20.01
2023-03-03T22:59:57.361Z,20.09
2023-03-03T23:01:20.021Z,19.89
2023-03-03T23:02:41.746Z,19.78
2023-03-03T23:04:04.527Z,19.80
2023-03-03T23:05:26.445Z,19.34
2023-03-03T23:06:48.348Z,19.36
2023-03-03T23:08:11.301Z,19.22
2023-03-03T23:09:33.125Z,19.35
2023-03-03T23:10:55.346Z,15.51
2023-03-03T23:12:17.910Z,18.81
2023-03-03T23:13:40.096Z,18.27
2023-03-03T23:15:02.524Z,18.26
2023-03-03T23:16:25.167Z,19.11
2023-03-03T23:17:46.356Z,15.19
2023-03-03T23:19:08.768Z,19.26
2023-03-03T23:20:30.654Z,16.32
2023-03-03T23:21:53.432Z,18.59
2023-03-03T23:23:15.291Z,18.02
2023-03-03T23:24:37.258Z,18.73
2023-03-03T23:26:00.329Z,17.77
2023-03-03T23:27:25.472Z,18.30
2023-03-03T23:28:48.155Z,18.76
2023-03-03T23:30:12.428Z,18.86
2023-03-03T23:31:34.344Z,17.99
2023-03-03T23:32:57.556Z,18.18
2023-03-03T23:34:19.394Z,18.15
2023-03-03T23:35:41.746Z,18.60
2023-03-03T23:37:03.398Z,17.96
2023-03-03T23:38:24.932Z,18.69
2023-03-03T23:39:47.389Z,18.13
2023-03-03T23:41:09.269Z,18.13
2023-03-03T23:42:30.472Z,17.58
2023-03-03T23:43:53.685Z,17.87
2023-03-03T23:45:15.683Z,19.53
2023-03-03T23:46:37.797Z,15.79
2023-03-03T23:48:00.242Z,18.33
2023-03-03T23:49:22.040Z,17.24
2023-03-03T23:50:43.115Z,16.91
2023-03-03T23:52:04.971Z,16.82
2023-03-03T23:53:26.888Z,17.58
2023-03-03T23:54:48.989Z,17.11
2023-03-03T23:56:12.312Z,17.31
2023-03-03T23:57:36.292Z,16.66
2023-03-03T23:58:59.189Z,15.90
